Time;durP1;ratioP1;P1;durP2;ratioP2;P2;SDS_P1;SDS_P2;PMS_P1;PMS_P2;Temp;Humidity;BMP_temperature;BMP_pressure;BME280_temperature;BME280_humidity;BME280_pressure;Samples;Min_cycle;Max_cycle;Signal;HPM_P1;HPM_P2
2022/09/19 00:02:27;;;;;;;10.23;7.72;;;21.50;99.90;;;;;;6142761;28;89066;-64
2022/09/19 00:05:29;;;;;;;10.40;7.93;;;21.40;99.90;;;;;;6152805;28;89128;-64
2022/09/19 00:08:31;;;;;;;9.65;8.23;;;21.50;99.90;;;;;;6140399;28;89142;-64
2022/09/19 00:11:35;;;;;;;9.32;7.88;;;21.40;99.90;;;;;;6148005;28;89146;-65
2022/09/19 00:14:37;;;;;;;10.60;8.32;;;21.40;99.90;;;;;;6153318;28;89059;-63
2022/09/19 00:17:40;;;;;;;8.30;7.50;;;21.40;99.90;;;;;;6155185;28;89110;-63
2022/09/19 00:20:43;;;;;;;9.02;8.13;;;21.40;99.90;;;;;;6153800;28;88263;-63
2022/09/19 00:27:07;;;;;;;9.27;7.85;;;21.50;99.90;;;;;;6156130;28;87218;-63
2022/09/19 00:30:09;;;;;;;8.13;7.32;;;21.50;99.90;;;;;;6154344;28;90395;-63
2022/09/19 00:33:12;;;;;;;8.43;7.55;;;21.40;99.90;;;;;;6138524;28;87986;-63
2022/09/19 00:36:15;;;;;;;8.52;7.63;;;21.40;99.90;;;;;;6151478;28;87964;-63
2022/09/19 00:39:19;;;;;;;8.15;7.35;;;21.40;99.90;;;;;;6154909;28;89461;-63
2022/09/19 00:42:24;;;;;;;7.82;7.03;;;21.40;99.90;;;;;;6155843;28;89061;-64
2022/09/19 00:45:26;;;;;;;7.97;7.05;;;21.40;99.90;;;;;;6155282;28;89114;-63
2022/09/19 00:48:32;;;;;;;8.75;7.63;;;21.40;99.90;;;;;;6153402;28;89032;-63
2022/09/19 00:51:37;;;;;;;9.18;7.70;;;21.40;99.90;;;;;;6140324;28;88166;-63
2022/09/19 00:54:43;;;;;;;8.55;7.45;;;21.40;99.90;;;;;;6154486;28;89090;-63
2022/09/19 00:58:06;;;;;;;7.68;6.88;;;21.40;99.90;;;;;;6141380;28;89137;-63
2022/09/19 01:01:08;;;;;;;7.97;7.03;;;21.40;99.90;;;;;;6150227;28;89986;-63
2022/09/19 01:04:15;;;;;;;8.20;6.80;;;21.40;99.90;;;;;;6154254;28;89141;-63
2022/09/19 01:07:28;;;;;;;7.78;6.75;;;21.40;99.90;;;;;;6154828;28;87995;-64
2022/09/19 01:10:48;;;;;;;7.85;6.25;;;21.40;99.90;;;;;;6150622;28;89232;-64
2022/09/19 01:14:03;;;;;;;7.15;6.45;;;21.40;99.90;;;;;;6144695;28;89018;-63
2022/09/19 01:17:13;;;;;;;7.47;6.40;;;21.40;99.90;;;;;;6137007;28;89216;-63
2022/09/19 01:20:35;;;;;;;7.15;6.45;;;21.40;99.90;;;;;;6148699;28;89441;-63
2022/09/19 01:23:57;;;;;;;6.68;6.03;;;21.40;99.90;;;;;;6154964;28;88217;-63
2022/09/19 01:27:31;;;;;;;7.18;6.38;;;21.30;99.90;;;;;;6145346;28;89206;-63
2022/09/19 01:30:37;;;;;;;6.88;6.00;;;21.30;99.90;;;;;;6122155;28;90069;-63
2022/09/19 01:33:42;;;;;;;8.77;6.28;;;21.30;99.90;;;;;;6162084;28;89761;-63
2022/09/19 01:36:49;;;;;;;7.55;6.30;;;21.40;99.90;;;;;;6150216;28;89017;-63
2022/09/19 01:39:52;;;;;;;6.90;6.20;;;21.30;99.90;;;;;;6150482;28;89084;-63
2022/09/19 01:42:56;;;;;;;6.97;6.00;;;21.30;99.90;;;;;;6155647;28;89130;-63
2022/09/19 01:46:21;;;;;;;8.05;6.25;;;21.40;99.90;;;;;;6162174;28;89191;-63
2022/09/19 01:49:42;;;;;;;8.30;6.53;;;21.40;99.90;;;;;;6149756;28;89160;-63
2022/09/19 01:53:00;;;;;;;6.72;5.15;;;21.30;99.90;;;;;;6158620;28;89083;-63
2022/09/19 01:56:11;;;;;;;7.47;6.03;;;21.30;99.90;;;;;;6154568;28;87436;-63
2022/09/19 01:59:34;;;;;;;6.88;5.40;;;21.40;99.90;;;;;;6154471;28;89109;-63
2022/09/19 02:02:46;;;;;;;5.68;5.13;;;21.30;99.90;;;;;;6160658;28;89379;-63
2022/09/19 02:05:53;;;;;;;6.45;5.47;;;21.30;99.90;;;;;;6154155;28;90070;-63
2022/09/19 02:09:03;;;;;;;6.10;5.50;;;21.30;99.90;;;;;;6158282;28;90212;-63
2022/09/19 02:12:10;;;;;;;5.32;4.72;;;21.30;99.90;;;;;;6158421;28;89073;-63
2022/09/19 02:15:15;;;;;;;5.60;5.03;;;21.30;99.90;;;;;;6151552;28;89032;-63
2022/09/19 02:18:24;;;;;;;5.32;4.82;;;21.30;99.90;;;;;;6152670;28;89129;-63
2022/09/19 02:21:36;;;;;;;5.40;4.90;;;21.40;99.90;;;;;;6161182;28;89210;-63
2022/09/19 02:24:43;;;;;;;5.32;4.82;;;21.40;99.90;;;;;;6158102;28;88961;-63
2022/09/19 02:27:53;;;;;;;5.40;4.90;;;21.30;99.90;;;;;;6152321;28;87320;-63
2022/09/19 02:30:55;;;;;;;4.75;4.28;;;21.30;99.90;;;;;;6147730;28;89150;-63
2022/09/19 02:34:00;;;;;;;5.63;4.40;;;21.30;99.90;;;;;;6158235;28;88989;-63
2022/09/19 02:37:08;;;;;;;5.68;4.70;;;21.30;99.90;;;;;;6163252;28;90367;-63
2022/09/19 02:40:15;;;;;;;4.78;4.35;;;21.30;99.90;;;;;;6141014;28;89721;-64
2022/09/19 02:43:28;;;;;;;4.78;4.38;;;21.30;99.90;;;;;;6150107;28;87381;-63
2022/09/19 02:46:38;;;;;;;4.78;4.28;;;21.30;99.90;;;;;;6142608;28;87978;-63
2022/09/19 02:49:48;;;;;;;4.78;4.25;;;21.30;99.90;;;;;;6154740;28;88785;-63
2022/09/19 02:52:52;;;;;;;5.25;4.50;;;21.30;99.90;;;;;;6155941;28;89432;-63
2022/09/19 02:55:58;;;;;;;4.38;3.97;;;21.30;99.90;;;;;;6152744;28;89451;-63
2022/09/19 02:59:06;;;;;;;4.80;4.40;;;21.30;99.90;;;;;;6153254;28;87275;-63
2022/09/19 03:02:16;;;;;;;4.35;3.95;;;21.30;99.90;;;;;;6152165;28;89000;-63
2022/09/19 03:05:21;;;;;;;4.40;4.00;;;21.30;99.90;;;;;;6151438;28;89162;-63
2022/09/19 03:08:25;;;;;;;4.40;4.00;;;21.30;99.90;;;;;;6150092;28;90017;-63
2022/09/19 03:11:30;;;;;;;5.05;4.25;;;21.30;99.90;;;;;;6155662;28;89098;-63
2022/09/19 03:14:35;;;;;;;4.88;4.07;;;21.30;99.90;;;;;;6154473;28;88639;-63
2022/09/19 03:17:40;;;;;;;4.35;3.88;;;21.20;99.90;;;;;;6156926;28;89020;-63
2022/09/19 03:20:49;;;;;;;4.80;4.18;;;21.20;99.90;;;;;;6158446;28;88699;-63
2022/09/19 03:23:58;;;;;;;4.93;4.30;;;21.30;99.90;;;;;;6156632;28;89048;-62
2022/09/19 03:27:01;;;;;;;7.60;4.95;;;21.20;99.90;;;;;;6155459;28;89027;-63
2022/09/19 03:30:03;;;;;;;6.18;4.85;;;21.20;99.90;;;;;;6154332;28;88315;-63
2022/09/19 03:33:05;;;;;;;6.22;4.85;;;21.30;99.90;;;;;;6155040;28;89378;-63
2022/09/19 03:36:09;;;;;;;6.32;4.43;;;21.20;99.90;;;;;;6145639;28;89097;-62
2022/09/19 03:39:11;;;;;;;4.63;4.13;;;21.20;99.90;;;;;;6159582;28;89988;-63
2022/09/19 03:42:14;;;;;;;4.47;4.07;;;21.30;99.90;;;;;;6153096;28;89511;-62
2022/09/19 03:45:16;;;;;;;4.93;4.18;;;21.30;99.90;;;;;;6142311;28;89003;-63
2022/09/19 03:48:18;;;;;;;5.10;4.35;;;21.20;99.90;;;;;;6153577;28;89055;-63
2022/09/19 03:51:22;;;;;;;6.63;4.30;;;21.30;99.90;;;;;;6154293;28;89122;-63
2022/09/19 03:54:24;;;;;;;5.90;4.38;;;21.20;99.90;;;;;;6156204;28;89312;-63
2022/09/19 03:57:26;;;;;;;4.60;4.18;;;21.20;99.90;;;;;;6147040;28;89120;-63
2022/09/19 04:00:28;;;;;;;5.65;4.53;;;21.20;99.90;;;;;;6140447;28;88439;-63
2022/09/19 04:03:30;;;;;;;4.47;4.07;;;21.20;99.90;;;;;;6143482;28;88832;-62
2022/09/19 04:06:34;;;;;;;4.97;4.32;;;21.20;99.90;;;;;;6151510;28;87965;-63
2022/09/19 04:09:36;;;;;;;4.88;4.38;;;21.20;99.90;;;;;;6151299;28;89941;-63
2022/09/19 04:12:39;;;;;;;6.07;4.88;;;21.20;99.90;;;;;;6136186;28;88946;-63
2022/09/19 04:15:42;;;;;;;4.40;4.00;;;21.20;99.90;;;;;;6145918;28;89082;-62
2022/09/19 04:18:47;;;;;;;5.03;4.32;;;21.20;99.90;;;;;;6142214;28;87958;-63
2022/09/19 04:21:50;;;;;;;4.35;3.95;;;21.20;99.90;;;;;;6140622;28;89844;-63
2022/09/19 04:24:52;;;;;;;4.72;4.28;;;21.20;99.90;;;;;;6150680;28;89143;-63
2022/09/19 04:27:54;;;;;;;5.53;4.60;;;21.20;99.90;;;;;;6143773;28;87955;-63
2022/09/19 04:30:56;;;;;;;4.72;4.20;;;21.20;99.90;;;;;;6156867;28;88340;-63
2022/09/19 04:33:58;;;;;;;5.68;4.50;;;21.20;99.90;;;;;;6151347;28;89118;-63
2022/09/19 04:37:02;;;;;;;5.50;4.70;;;21.20;99.90;;;;;;6158071;28;89020;-63
2022/09/19 04:40:04;;;;;;;5.95;5.00;;;21.20;99.90;;;;;;6152719;28;89985;-64
2022/09/19 04:43:06;;;;;;;19.25;9.57;;;21.20;99.90;;;;;;6150112;28;89131;-63
2022/09/19 04:46:08;;;;;;;11.13;6.10;;;21.20;99.90;;;;;;6155276;28;89108;-64
2022/09/19 04:49:11;;;;;;;9.88;6.45;;;21.20;99.90;;;;;;6148165;28;88278;-64
2022/09/19 04:52:15;;;;;;;7.70;5.50;;;21.20;99.90;;;;;;6152045;28;89134;-64
2022/09/19 04:55:17;;;;;;;9.25;6.03;;;21.20;99.90;;;;;;6154711;28;89036;-64
2022/09/19 04:58:19;;;;;;;6.53;5.38;;;21.20;99.90;;;;;;6143138;28;89435;-64
2022/09/19 05:01:23;;;;;;;6.03;5.30;;;21.30;99.90;;;;;;6144221;28;88385;-63
2022/09/19 05:04:25;;;;;;;9.20;5.57;;;21.30;99.90;;;;;;6148431;28;89084;-63
2022/09/19 05:07:33;;;;;;;20.27;9.85;;;21.30;99.90;;;;;;6152684;28;89111;-63
2022/09/19 05:10:35;;;;;;;10.80;6.32;;;21.30;99.90;;;;;;6151896;28;90079;-63
2022/09/19 05:13:40;;;;;;;12.02;6.57;;;21.30;99.90;;;;;;6153985;28;89052;-63
2022/09/19 05:16:42;;;;;;;33.78;15.70;;;21.40;99.90;;;;;;6144762;28;89045;-63
2022/09/19 05:19:44;;;;;;;15.57;8.52;;;21.40;99.90;;;;;;6156162;28;89360;-62
2022/09/19 05:22:48;;;;;;;11.75;6.85;;;21.50;99.90;;;;;;6149474;28;89127;-62
2022/09/19 05:25:53;;;;;;;21.00;12.57;;;21.50;99.90;;;;;;6154578;28;87896;-63
2022/09/19 05:28:55;;;;;;;13.75;7.57;;;21.60;99.90;;;;;;6151309;28;89047;-62
2022/09/19 05:32:02;;;;;;;9.73;6.88;;;21.70;99.90;;;;;;6151211;28;88291;-63
2022/09/19 05:35:04;;;;;;;7.90;6.63;;;21.70;99.90;;;;;;6151113;28;91001;-63
2022/09/19 05:38:08;;;;;;;9.18;6.50;;;21.80;99.90;;;;;;6162140;28;89202;-63
2022/09/19 05:41:11;;;;;;;11.95;6.88;;;21.80;99.90;;;;;;6145162;28;90111;-63
2022/09/19 05:44:14;;;;;;;8.45;7.03;;;21.80;99.90;;;;;;6156052;28;87900;-64
2022/09/19 05:47:16;;;;;;;11.32;7.00;;;21.80;99.90;;;;;;6143925;28;89371;-63
2022/09/19 05:50:18;;;;;;;9.10;7.18;;;21.80;99.90;;;;;;6147733;28;89637;-64
2022/09/19 05:56:42;;;;;;;10.32;6.90;;;21.90;99.90;;;;;;6155284;28;87135;-64
2022/09/19 05:59:44;;;;;;;9.88;6.72;;;21.90;99.90;;;;;;6151607;28;90832;-64
2022/09/19 06:02:53;;;;;;;10.05;6.50;;;21.90;99.90;;;;;;6153971;28;88373;-65
2022/09/19 06:05:55;;;;;;;11.05;6.47;;;21.90;99.90;;;;;;6155034;28;89033;-64
2022/09/19 06:08:59;;;;;;;9.25;6.30;;;22.00;99.90;;;;;;6150133;28;88329;-64
2022/09/19 06:12:01;;;;;;;9.95;6.75;;;22.10;99.90;;;;;;6140896;28;90033;-65
2022/09/19 06:15:03;;;;;;;9.02;5.90;;;22.10;99.90;;;;;;6148088;28;89447;-64
2022/09/19 06:18:06;;;;;;;9.30;6.50;;;22.10;99.90;;;;;;6139949;28;89014;-63
2022/09/19 06:21:08;;;;;;;10.95;6.15;;;22.10;99.90;;;;;;6152818;28;89163;-65
2022/09/19 06:24:11;;;;;;;9.35;5.80;;;22.10;99.90;;;;;;6148326;28;89010;-64
2022/09/19 06:27:14;;;;;;;8.38;6.70;;;22.20;99.90;;;;;;6164103;28;89342;-64
2022/09/19 06:30:17;;;;;;;8.75;5.93;;;22.10;99.90;;;;;;6145909;28;89283;-64
2022/09/19 06:33:19;;;;;;;10.05;5.90;;;22.20;99.90;;;;;;6152598;28;88485;-64
2022/09/19 06:36:21;;;;;;;6.70;5.57;;;22.20;99.90;;;;;;6147246;28;89127;-63
2022/09/19 06:39:25;;;;;;;13.27;7.07;;;22.20;99.90;;;;;;6151004;28;89004;-64
2022/09/19 06:42:28;;;;;;;8.25;5.90;;;22.20;99.90;;;;;;6153074;28;90128;-64
2022/09/19 06:45:31;;;;;;;7.88;5.63;;;22.20;99.90;;;;;;6142817;28;89055;-64
2022/09/19 06:48:34;;;;;;;10.05;5.65;;;22.20;99.90;;;;;;6138236;28;89021;-64
2022/09/19 06:51:36;;;;;;;9.13;6.38;;;22.30;99.90;;;;;;6155362;28;89488;-64
2022/09/19 06:54:40;;;;;;;10.23;6.00;;;22.30;99.90;;;;;;6154822;28;89056;-63
2022/09/19 06:57:41;;;;;;;11.43;6.20;;;22.30;99.90;;;;;;6139443;28;89100;-64
2022/09/19 07:00:44;;;;;;;13.57;6.45;;;22.30;99.90;;;;;;6143385;28;89110;-64
2022/09/19 07:03:46;;;;;;;11.00;6.25;;;22.30;99.90;;;;;;6153394;28;88685;-64
2022/09/19 07:06:48;;;;;;;11.80;6.32;;;22.30;99.90;;;;;;6158806;28;89012;-64
2022/09/19 07:09:51;;;;;;;11.32;6.45;;;22.30;99.90;;;;;;6144403;28;89442;-64
2022/09/19 07:12:55;;;;;;;10.73;6.10;;;22.30;99.90;;;;;;6151655;28;90565;-64
2022/09/19 07:16:01;;;;;;;11.65;5.78;;;22.30;99.90;;;;;;6157863;28;89103;-64
2022/09/19 07:19:03;;;;;;;14.32;6.13;;;22.30;99.90;;;;;;6151795;28;89198;-63
2022/09/19 07:22:06;;;;;;;11.93;5.97;;;22.30;99.90;;;;;;6147703;28;89037;-64
2022/09/19 07:25:09;;;;;;;13.85;5.90;;;22.30;99.90;;;;;;6150731;28;89183;-64
2022/09/19 07:28:13;;;;;;;11.32;5.90;;;22.30;99.90;;;;;;6149798;28;89164;-64
2022/09/19 07:31:15;;;;;;;15.90;6.05;;;22.30;99.90;;;;;;6144583;28;89069;-63
2022/09/19 07:34:17;;;;;;;9.75;5.55;;;22.30;99.90;;;;;;6146845;28;88530;-63
2022/09/19 07:37:19;;;;;;;10.45;5.82;;;22.40;99.90;;;;;;6160730;28;89301;-63
2022/09/19 07:40:22;;;;;;;11.63;5.80;;;22.40;99.90;;;;;;6145548;28;89047;-63
2022/09/19 07:43:24;;;;;;;11.00;5.70;;;22.40;99.90;;;;;;6154383;28;90047;-62
2022/09/19 07:46:26;;;;;;;14.82;7.22;;;22.40;99.90;;;;;;6156768;28;89064;-63
2022/09/19 07:49:28;;;;;;;9.90;5.47;;;22.40;99.90;;;;;;6146934;28;89168;-63
2022/09/19 07:52:30;;;;;;;10.32;5.40;;;22.60;99.90;;;;;;6154191;28;89412;-63
2022/09/19 07:55:35;;;;;;;9.32;5.00;;;22.60;99.90;;;;;;6145126;28;89064;-63
2022/09/19 07:58:36;;;;;;;9.95;5.57;;;22.80;99.90;;;;;;6144929;28;89167;-63
2022/09/19 08:01:38;;;;;;;15.45;5.57;;;22.80;99.90;;;;;;6147203;28;87965;-63
2022/09/19 08:04:41;;;;;;;10.73;5.40;;;22.80;99.90;;;;;;6154681;28;88293;-63
2022/09/19 08:07:42;;;;;;;9.57;5.05;;;22.90;99.90;;;;;;6154342;28;87995;-63
2022/09/19 08:10:46;;;;;;;13.75;5.25;;;22.90;99.90;;;;;;6154022;28;89073;-63
2022/09/19 08:13:49;;;;;;;15.57;5.40;;;22.90;99.90;;;;;;6142772;28;90320;-63
2022/09/19 08:16:51;;;;;;;14.13;5.20;;;22.80;99.90;;;;;;6155409;28;89170;-63
2022/09/19 08:19:54;;;;;;;9.75;5.20;;;22.90;99.90;;;;;;6152762;28;87944;-64
2022/09/19 08:22:57;;;;;;;10.65;4.95;;;22.80;99.90;;;;;;6143089;28;88928;-63
2022/09/19 08:26:02;;;;;;;10.65;5.25;;;22.80;99.90;;;;;;6154057;28;89191;-64
2022/09/19 08:29:04;;;;;;;10.77;5.18;;;22.70;99.90;;;;;;6146710;28;89037;-63
2022/09/19 08:32:07;;;;;;;9.95;5.15;;;22.70;99.90;;;;;;6146771;28;89069;-64
2022/09/19 08:35:09;;;;;;;8.27;4.75;;;22.70;99.90;;;;;;6157011;28;90056;-63
2022/09/19 08:38:13;;;;;;;13.02;5.00;;;22.70;99.90;;;;;;6159304;28;89086;-63
2022/09/19 08:41:33;;;;;;;10.88;4.70;;;22.60;99.90;;;;;;6150136;28;89096;-63
2022/09/19 08:44:49;;;;;;;10.70;4.72;;;22.60;99.90;;;;;;6155946;28;90120;-63
2022/09/19 08:47:52;;;;;;;8.00;4.30;;;22.60;99.90;;;;;;6152807;28;89388;-64
2022/09/19 08:51:01;;;;;;;9.48;4.55;;;22.60;99.90;;;;;;6149833;28;89170;-63
2022/09/19 08:54:11;;;;;;;6.07;3.88;;;22.50;99.90;;;;;;6157585;28;89065;-63
2022/09/19 08:57:18;;;;;;;10.95;4.50;;;22.50;99.90;;;;;;6143270;28;89174;-63
2022/09/19 09:00:22;;;;;;;7.10;4.38;;;22.50;99.90;;;;;;6155725;28;89320;-64
2022/09/19 09:03:34;;;;;;;8.07;4.78;;;22.50;99.90;;;;;;6156703;28;89026;-64
2022/09/19 09:06:42;;;;;;;8.15;4.20;;;22.40;99.90;;;;;;6157566;28;88329;-63
2022/09/19 09:10:09;;;;;;;6.70;4.10;;;22.40;99.90;;;;;;6141051;28;87972;-64
2022/09/19 09:13:25;;;;;;;8.93;4.15;;;22.40;99.90;;;;;;6146368;28;89126;-64
2022/09/19 09:16:38;;;;;;;7.15;4.25;;;22.40;99.90;;;;;;6140901;28;88862;-63
2022/09/19 09:20:12;;;;;;;7.97;4.00;;;22.40;99.90;;;;;;6155886;28;87860;-64
2022/09/19 09:23:20;;;;;;;6.57;3.83;;;22.40;99.90;;;;;;6128433;28;88064;-64
2022/09/19 09:26:26;;;;;;;7.65;3.75;;;22.30;99.90;;;;;;6149390;28;89083;-64
2022/09/19 09:29:35;;;;;;;8.45;4.00;;;22.40;99.90;;;;;;6156320;28;89046;-63
2022/09/19 09:32:43;;;;;;;7.07;3.67;;;22.30;99.90;;;;;;6148795;28;89090;-64
2022/09/19 09:35:48;;;;;;;8.32;3.40;;;22.20;99.90;;;;;;6148950;28;88015;-64
2022/09/19 09:38:55;;;;;;;7.90;4.07;;;22.20;99.90;;;;;;6164788;28;87299;-63
2022/09/19 09:42:01;;;;;;;5.88;3.45;;;22.20;99.90;;;;;;6143269;28;87750;-64
2022/09/19 09:45:14;;;;;;;5.95;3.65;;;22.20;99.90;;;;;;6145312;28;89077;-64
2022/09/19 09:48:21;;;;;;;5.22;3.55;;;22.20;99.90;;;;;;6147353;28;89041;-64
2022/09/19 09:51:39;;;;;;;5.18;3.30;;;22.10;99.90;;;;;;6161638;28;89077;-63
2022/09/19 09:58:19;;;;;;;4.63;3.17;;;22.10;99.90;;;;;;6149628;28;87170;-64
2022/09/19 10:05:01;;;;;;;5.43;3.30;;;22.10;99.90;;;;;;6150735;28;88016;-64
2022/09/19 10:08:15;;;;;;;5.65;3.17;;;22.10;99.90;;;;;;6156084;28;89100;-64
2022/09/19 10:11:21;;;;;;;5.22;3.20;;;22.10;99.90;;;;;;6154958;28;88458;-64
2022/09/19 10:14:28;;;;;;;5.05;3.10;;;22.10;99.90;;;;;;6149888;28;89139;-64
2022/09/19 10:17:37;;;;;;;5.00;2.90;;;22.10;99.90;;;;;;6159506;28;89174;-62
2022/09/19 10:20:45;;;;;;;5.63;3.10;;;22.10;99.90;;;;;;6148316;28;88965;-64
2022/09/19 10:23:48;;;;;;;5.15;3.00;;;22.10;99.90;;;;;;6148859;28;89119;-63
2022/09/19 10:26:49;;;;;;;5.32;2.85;;;22.00;99.90;;;;;;6146750;28;89239;-63
2022/09/19 10:29:56;;;;;;;3.55;2.70;;;22.00;99.90;;;;;;6151007;28;89084;-63
2022/09/19 10:33:03;;;;;;;5.68;3.00;;;22.00;99.90;;;;;;6148481;28;88229;-63
2022/09/19 10:36:08;;;;;;;4.35;2.90;;;22.00;99.90;;;;;;6154325;28;89490;-63
2022/09/19 10:39:16;;;;;;;4.55;2.88;;;22.00;99.90;;;;;;6163441;28;88485;-63
2022/09/19 10:42:31;;;;;;;4.65;2.88;;;22.00;99.90;;;;;;6143924;28;88576;-64
2022/09/19 10:45:36;;;;;;;3.80;2.88;;;22.00;99.90;;;;;;6152217;28;88986;-63
2022/09/19 10:48:41;;;;;;;4.90;2.97;;;22.00;99.90;;;;;;6152224;28;89182;-63
2022/09/19 10:51:45;;;;;;;4.28;2.95;;;22.00;99.90;;;;;;6147875;28;90029;-63
2022/09/19 10:54:50;;;;;;;4.15;2.42;;;22.00;99.90;;;;;;6155687;28;89093;-62
2022/09/19 10:57:59;;;;;;;4.72;2.90;;;22.00;99.90;;;;;;6141716;28;89087;-63
2022/09/19 11:01:04;;;;;;;3.58;2.67;;;22.00;99.90;;;;;;6152521;28;89570;-63
2022/09/19 11:04:24;;;;;;;4.65;2.67;;;22.00;99.90;;;;;;6155050;28;89120;-63
2022/09/19 11:07:28;;;;;;;3.15;2.55;;;22.00;99.90;;;;;;6144702;28;89239;-63
2022/09/19 11:10:37;;;;;;;4.55;2.67;;;21.90;99.90;;;;;;6151353;28;89000;-63
2022/09/19 11:13:43;;;;;;;4.00;2.63;;;22.00;99.90;;;;;;6151800;28;89670;-63
2022/09/19 11:17:02;;;;;;;4.85;2.58;;;21.90;99.90;;;;;;6146253;28;89382;-63
2022/09/19 11:20:19;;;;;;;3.30;2.55;;;22.00;99.90;;;;;;6140453;28;89064;-63
2022/09/19 11:23:52;;;;;;;6.65;2.85;;;22.00;99.90;;;;;;6155531;28;90081;-63
2022/09/19 11:27:16;;;;;;;4.93;2.40;;;22.00;99.90;;;;;;6158944;28;90342;-63
2022/09/19 11:30:21;;;;;;;4.60;2.70;;;21.90;99.90;;;;;;6135550;28;89321;-63
2022/09/19 11:33:38;;;;;;;3.92;2.65;;;21.90;99.90;;;;;;6135504;28;89076;-63
2022/09/19 11:36:52;;;;;;;3.45;2.70;;;21.90;99.90;;;;;;6152191;28;88108;-63
2022/09/19 11:40:06;;;;;;;4.82;2.50;;;21.90;99.90;;;;;;6146141;28;87972;-63
2022/09/19 11:43:23;;;;;;;4.72;2.42;;;21.90;99.90;;;;;;6150206;28;89385;-63
2022/09/19 11:46:32;;;;;;;3.28;2.40;;;21.90;99.90;;;;;;6157154;28;87287;-63
2022/09/19 11:49:59;;;;;;;3.40;2.30;;;21.90;99.90;;;;;;6144938;28;90223;-63
2022/09/19 11:53:21;;;;;;;2.92;2.10;;;21.90;99.90;;;;;;6157733;28;89046;-63
2022/09/19 11:56:42;;;;;;;3.53;2.38;;;21.80;99.90;;;;;;6147381;28;90163;-63
2022/09/19 12:00:04;;;;;;;2.95;2.13;;;21.90;99.90;;;;;;6147027;28;89431;-63
2022/09/19 12:03:30;;;;;;;3.13;2.30;;;21.90;99.90;;;;;;6147223;28;89086;-63
2022/09/19 12:06:51;;;;;;;3.95;2.58;;;21.80;99.90;;;;;;6147735;28;88984;-63
2022/09/19 12:09:59;;;;;;;3.72;2.20;;;21.90;99.90;;;;;;6151237;28;87967;-63
2022/09/19 12:13:04;;;;;;;2.70;2.08;;;21.80;99.90;;;;;;6152503;28;89129;-63
2022/09/19 12:16:10;;;;;;;3.10;2.10;;;21.80;99.90;;;;;;6157671;28;89098;-63
2022/09/19 12:19:17;;;;;;;2.88;2.35;;;21.80;99.90;;;;;;6145663;28;87233;-63
2022/09/19 12:22:23;;;;;;;2.95;2.25;;;21.80;99.90;;;;;;6151576;28;88756;-63
2022/09/19 12:25:29;;;;;;;3.15;2.35;;;21.80;99.90;;;;;;6155567;28;89060;-63
2022/09/19 12:28:35;;;;;;;2.70;2.20;;;21.80;99.90;;;;;;6156342;28;90100;-63
2022/09/19 12:31:43;;;;;;;3.35;2.20;;;21.80;99.90;;;;;;6148445;28;89209;-63
2022/09/19 12:34:51;;;;;;;3.15;2.33;;;21.80;99.90;;;;;;6141206;28;87985;-63
2022/09/19 12:38:04;;;;;;;2.88;2.20;;;21.80;99.90;;;;;;6157969;28;89168;-63
2022/09/19 12:41:13;;;;;;;3.92;2.55;;;21.70;99.90;;;;;;6152212;28;89129;-63
2022/09/19 12:44:24;;;;;;;3.67;2.33;;;21.80;99.90;;;;;;6145306;28;89084;-62
2022/09/19 12:47:41;;;;;;;2.65;1.98;;;21.80;99.90;;;;;;6142713;28;89391;-63
2022/09/19 12:50:45;;;;;;;2.78;1.90;;;21.70;99.90;;;;;;6152903;28;88283;-63
2022/09/19 12:53:55;;;;;;;2.50;1.90;;;21.80;99.90;;;;;;6157228;28;89085;-62
2022/09/19 12:57:06;;;;;;;2.45;2.00;;;21.70;99.90;;;;;;6149705;28;89175;-63
2022/09/19 13:00:13;;;;;;;2.97;1.80;;;21.70;99.90;;;;;;6148142;28;92962;-62
2022/09/19 13:03:21;;;;;;;4.05;2.20;;;21.70;99.90;;;;;;6139621;28;88051;-63
2022/09/19 13:06:30;;;;;;;2.30;2.10;;;21.70;99.90;;;;;;6145194;28;89115;-63
2022/09/19 13:09:37;;;;;;;2.80;2.15;;;21.70;99.90;;;;;;6150255;28;89114;-63
2022/09/19 13:12:45;;;;;;;2.88;2.08;;;21.70;99.90;;;;;;6152260;28;89180;-63
2022/09/19 13:15:51;;;;;;;3.22;2.20;;;21.70;99.90;;;;;;6139854;28;89039;-62
2022/09/19 13:25:35;;;;;;;2.47;1.90;;;21.70;99.90;;;;;;6160379;28;87323;-63
2022/09/19 13:28:49;;;;;;;2.72;2.10;;;21.70;99.90;;;;;;6162029;28;87925;-62
2022/09/19 13:32:01;;;;;;;2.38;1.80;;;21.70;99.90;;;;;;6159196;28;90306;-63
2022/09/19 13:35:15;;;;;;;2.28;1.90;;;21.70;99.90;;;;;;6158712;28;89275;-63
2022/09/19 13:38:25;;;;;;;1.98;1.77;;;21.70;99.90;;;;;;6158488;28;89027;-63
2022/09/19 13:41:31;;;;;;;1.92;1.70;;;21.70;99.90;;;;;;6136884;28;88938;-63
2022/09/19 13:44:41;;;;;;;1.85;1.50;;;21.70;99.90;;;;;;6154942;28;88939;-63
2022/09/19 13:47:46;;;;;;;3.25;1.80;;;21.60;99.90;;;;;;6160445;28;89163;-63
2022/09/19 13:50:55;;;;;;;2.45;1.85;;;21.70;99.90;;;;;;6155183;28;89163;-63
2022/09/19 13:54:33;;;;;;;2.10;1.70;;;21.70;99.90;;;;;;6137999;28;88371;-63
2022/09/19 13:57:39;;;;;;;2.20;1.80;;;21.70;99.90;;;;;;6150332;28;88982;-63
2022/09/19 14:00:47;;;;;;;2.15;1.80;;;21.70;99.90;;;;;;6149972;28;88944;-63
2022/09/19 14:03:56;;;;;;;2.15;1.73;;;21.70;99.90;;;;;;6148153;28;90106;-63
2022/09/19 14:06:59;;;;;;;2.35;1.77;;;21.60;99.90;;;;;;6141393;28;89132;-63
2022/09/19 14:10:06;;;;;;;2.00;1.80;;;21.70;99.90;;;;;;6152482;28;89048;-63
2022/09/19 14:13:32;;;;;;;2.38;1.70;;;21.60;99.90;;;;;;6147922;28;88300;-63
2022/09/19 14:16:36;;;;;;;1.92;1.70;;;21.60;99.90;;;;;;6148508;28;89136;-63
2022/09/19 14:19:47;;;;;;;2.92;1.77;;;21.60;99.90;;;;;;6157223;28;89125;-63
2022/09/19 14:22:49;;;;;;;2.10;1.48;;;21.60;99.90;;;;;;6153703;28;89500;-62
2022/09/19 14:25:59;;;;;;;2.08;1.70;;;21.60;99.90;;;;;;6160584;28;88235;-63
2022/09/19 14:29:18;;;;;;;2.95;1.75;;;21.60;99.90;;;;;;6159785;28;88950;-63
2022/09/19 14:32:29;;;;;;;1.88;1.67;;;21.60;99.90;;;;;;6159697;28;89096;-63
2022/09/19 14:35:44;;;;;;;2.40;1.83;;;21.60;99.90;;;;;;6155260;28;90060;-63
2022/09/19 14:39:18;;;;;;;2.38;1.60;;;21.60;99.90;;;;;;6166191;28;88963;-63
2022/09/19 14:42:53;;;;;;;2.63;1.90;;;21.60;99.90;;;;;;6141276;28;89287;-63
2022/09/19 14:46:18;;;;;;;1.55;1.45;;;21.60;99.90;;;;;;6153725;28;90177;-63
2022/09/19 14:49:27;;;;;;;1.88;1.52;;;21.60;99.90;;;;;;6147019;28;89086;-63
2022/09/19 14:52:31;;;;;;;2.00;1.80;;;21.60;99.90;;;;;;6158798;28;88367;-63
2022/09/19 14:55:42;;;;;;;2.25;1.80;;;21.60;99.90;;;;;;6144604;28;89386;-63
2022/09/19 14:58:50;;;;;;;2.25;1.70;;;21.50;99.90;;;;;;6147433;28;88237;-63
2022/09/19 15:01:56;;;;;;;1.90;1.50;;;21.50;99.90;;;;;;6159428;28;89189;-63
2022/09/19 15:05:01;;;;;;;2.00;1.65;;;21.60;99.90;;;;;;6159097;28;89182;-63
2022/09/19 15:08:17;;;;;;;2.00;1.50;;;21.60;99.90;;;;;;6146346;28;88903;-63
2022/09/19 15:11:20;;;;;;;2.30;1.70;;;21.60;99.90;;;;;;6157682;28;88885;-63
2022/09/19 15:14:23;;;;;;;2.10;1.73;;;21.60;99.90;;;;;;6159208;28;89184;-63
2022/09/19 15:17:28;;;;;;;1.85;1.52;;;21.60;99.90;;;;;;6149906;28;88091;-63
2022/09/19 15:20:31;;;;;;;2.08;1.60;;;21.50;99.90;;;;;;6140997;28;91788;-63
2022/09/19 15:23:35;;;;;;;1.67;1.58;;;21.50;99.90;;;;;;6157960;28;89007;-63
2022/09/19 15:26:44;;;;;;;1.60;1.50;;;21.50;99.90;;;;;;6149979;28;89066;-63
2022/09/19 15:29:47;;;;;;;1.55;1.45;;;21.50;99.90;;;;;;6147472;28;88362;-63
2022/09/19 15:32:53;;;;;;;1.73;1.50;;;21.50;99.90;;;;;;6153113;28;89136;-63
2022/09/19 15:35:58;;;;;;;1.73;1.50;;;21.50;99.90;;;;;;6153521;28;89089;-63
2022/09/19 15:39:02;;;;;;;3.42;2.05;;;21.50;99.90;;;;;;6150960;28;89999;-63
2022/09/19 15:42:05;;;;;;;2.95;1.98;;;21.50;99.90;;;;;;6147463;28;89103;-63
2022/09/19 15:45:37;;;;;;;1.80;1.60;;;21.50;99.90;;;;;;6158043;28;87984;-63
2022/09/19 15:48:46;;;;;;;2.53;1.77;;;21.50;99.90;;;;;;6144700;28;89220;-63
2022/09/19 15:51:57;;;;;;;2.13;1.50;;;21.50;99.90;;;;;;6136128;28;88930;-63
2022/09/19 15:55:00;;;;;;;2.10;1.60;;;21.50;99.90;;;;;;6147424;28;89504;-63
2022/09/19 15:58:03;;;;;;;2.42;1.80;;;21.50;99.90;;;;;;6157327;28;88983;-63
2022/09/19 16:01:21;;;;;;;2.20;1.80;;;21.50;99.90;;;;;;6149029;28;88333;-63
2022/09/19 16:04:26;;;;;;;2.10;1.65;;;21.40;99.90;;;;;;6149017;28;89088;-63
2022/09/19 16:10:56;;;;;;;1.63;1.50;;;21.50;99.90;;;;;;6156759;28;89130;-63
2022/09/19 16:14:17;;;;;;;2.03;1.60;;;21.50;99.90;;;;;;6157688;28;88992;-63
2022/09/19 16:17:22;;;;;;;1.95;1.63;;;21.50;99.90;;;;;;6156544;28;89122;-63
2022/09/19 16:20:39;;;;;;;2.58;1.80;;;21.40;99.90;;;;;;6153594;28;89081;-63
2022/09/19 16:23:44;;;;;;;1.70;1.38;;;21.40;99.90;;;;;;6148877;28;87899;-63
2022/09/19 16:26:49;;;;;;;1.83;1.60;;;21.50;99.90;;;;;;6152871;28;89448;-63
2022/09/19 16:29:53;;;;;;;1.75;1.55;;;21.40;99.90;;;;;;6144137;28;90120;-62
2022/09/19 16:32:56;;;;;;;2.03;1.55;;;21.40;99.90;;;;;;6145276;28;88362;-63
2022/09/19 16:36:01;;;;;;;2.00;1.50;;;21.40;99.90;;;;;;6155442;28;89002;-63
2022/09/19 16:39:20;;;;;;;2.03;1.60;;;21.50;99.90;;;;;;6157055;28;89347;-63